Lauderdale by the Sea, Florida
Current Conditions -  °F | °C
As of 2:53 AM on Thursday 27 Nov 2014 (Local Time) from KPMP Reporting Station
Clear Clear  
Wind Chill: 56°   Ceiling: Unl
Heat Index: 56°   Visibility: 10mi
Dew Point: 45°   Wind: 14mph
Humidity: 67%   Direction: 330°NNW
Pressure: 30.18"   Gusts: NA
Location:  26.2377°N, 80.0981°W
Report Text: KPMP 270753Z AUTO 33012KT 10SM CLR 13/07 A3018 RMK AO2 SLP220 T01330072
Loading
Personal Weather Stations






























Interactive Weather Map New forecast layout! Learn more

10-Day Weather Forecast

Advertisements
Track Severe Weather on mobile